sensor_id;sensor_type;location;lat;lon;timestamp;pressure;altitude;pressure_sealevel;temperature;humidity
43741;BME280;29352;48.708;9.290;2022-12-18T00:01:24;98951.50;;;-15.99;78.11
43741;BME280;29352;48.708;9.290;2022-12-18T00:04:00;98954.56;;;-15.80;79.33
43741;BME280;29352;48.708;9.290;2022-12-18T00:06:28;98956.25;;;-15.79;78.41
43741;BME280;29352;48.708;9.290;2022-12-18T00:08:56;98962.09;;;-15.73;78.31
43741;BME280;29352;48.708;9.290;2022-12-18T00:11:26;98966.41;;;-15.75;78.58
43741;BME280;29352;48.708;9.290;2022-12-18T00:13:55;98977.94;;;-15.99;78.58
43741;BME280;29352;48.708;9.290;2022-12-18T00:16:24;98964.09;;;-15.90;79.53
43741;BME280;29352;48.708;9.290;2022-12-18T00:18:54;98961.41;;;-15.81;79.55
43741;BME280;29352;48.708;9.290;2022-12-18T00:21:22;98957.09;;;-15.79;80.55
43741;BME280;29352;48.708;9.290;2022-12-18T00:23:49;98969.28;;;-15.93;80.63
43741;BME280;29352;48.708;9.290;2022-12-18T00:26:28;98970.97;;;-15.92;80.82
43741;BME280;29352;48.708;9.290;2022-12-18T00:28:59;98975.88;;;-15.80;79.99
43741;BME280;29352;48.708;9.290;2022-12-18T00:31:26;98963.88;;;-15.76;80.97
43741;BME280;29352;48.708;9.290;2022-12-18T00:33:55;98970.44;;;-16.11;81.03
43741;BME280;29352;48.708;9.290;2022-12-18T00:36:24;98961.06;;;-16.12;80.82
43741;BME280;29352;48.708;9.290;2022-12-18T00:38:53;98962.41;;;-15.91;80.91
43741;BME280;29352;48.708;9.290;2022-12-18T00:41:20;98974.44;;;-15.94;81.01
43741;BME280;29352;48.708;9.290;2022-12-18T00:44:07;98978.19;;;-16.15;81.48
43741;BME280;29352;48.708;9.290;2022-12-18T00:46:35;98973.81;;;-16.09;82.28
43741;BME280;29352;48.708;9.290;2022-12-18T00:49:00;98985.72;;;-16.08;82.00
43741;BME280;29352;48.708;9.290;2022-12-18T00:51:26;98981.22;;;-15.92;81.70
43741;BME280;29352;48.708;9.290;2022-12-18T00:53:52;98981.66;;;-15.67;81.69
43741;BME280;29352;48.708;9.290;2022-12-18T00:56:22;98983.94;;;-16.01;81.54
43741;BME280;29352;48.708;9.290;2022-12-18T00:58:47;98978.34;;;-16.26;80.71
43741;BME280;29352;48.708;9.290;2022-12-18T01:01:13;98974.53;;;-16.59;81.49
43741;BME280;29352;48.708;9.290;2022-12-18T01:03:39;98973.63;;;-16.55;80.93
43741;BME280;29352;48.708;9.290;2022-12-18T01:06:06;98986.25;;;-16.44;78.79
43741;BME280;29352;48.708;9.290;2022-12-18T01:08:34;98982.50;;;-16.84;80.23
43741;BME280;29352;48.708;9.290;2022-12-18T01:11:00;98975.91;;;-16.35;79.26
43741;BME280;29352;48.708;9.290;2022-12-18T01:13:27;98977.59;;;-16.34;77.31
43741;BME280;29352;48.708;9.290;2022-12-18T01:15:52;98978.56;;;-16.43;76.56
43741;BME280;29352;48.708;9.290;2022-12-18T01:18:18;98978.75;;;-16.57;76.25
43741;BME280;29352;48.708;9.290;2022-12-18T01:20:43;98966.94;;;-16.65;76.11
43741;BME280;29352;48.708;9.290;2022-12-18T01:23:09;98968.03;;;-16.83;75.51
43741;BME280;29352;48.708;9.290;2022-12-18T01:25:38;98972.66;;;-17.18;76.23
43741;BME280;29352;48.708;9.290;2022-12-18T01:28:03;98972.97;;;-17.44;76.06
43741;BME280;29352;48.708;9.290;2022-12-18T01:30:29;98978.75;;;-17.31;77.06
43741;BME280;29352;48.708;9.290;2022-12-18T01:32:54;98987.44;;;-17.44;76.35
43741;BME280;29352;48.708;9.290;2022-12-18T01:35:20;98987.44;;;-17.46;76.10
43741;BME280;29352;48.708;9.290;2022-12-18T01:37:45;98989.13;;;-17.43;75.83
43741;BME280;29352;48.708;9.290;2022-12-18T01:40:11;98989.88;;;-17.35;74.73
43741;BME280;29352;48.708;9.290;2022-12-18T01:42:37;98981.63;;;-17.60;75.13
43741;BME280;29352;48.708;9.290;2022-12-18T01:50:18;98991.94;;;-17.74;74.79
43741;BME280;29352;48.708;9.290;2022-12-18T01:52:50;98991.28;;;-17.96;75.01
43741;BME280;29352;48.708;9.290;2022-12-18T01:55:22;99000.59;;;-17.95;75.64
43741;BME280;29352;48.708;9.290;2022-12-18T01:57:55;99000.25;;;-17.50;74.64
43741;BME280;29352;48.708;9.290;2022-12-18T02:00:25;98991.31;;;-17.11;72.33
43741;BME280;29352;48.708;9.290;2022-12-18T02:02:53;98987.69;;;-17.73;72.62
43741;BME280;29352;48.708;9.290;2022-12-18T02:05:27;98969.75;;;-17.66;73.30
43741;BME280;29352;48.708;9.290;2022-12-18T02:13:45;98972.09;;;-18.46;75.78
43741;BME280;29352;48.708;9.290;2022-12-18T02:19:07;98988.69;;;-17.91;74.24
43741;BME280;29352;48.708;9.290;2022-12-18T02:25:28;98997.44;;;-18.29;75.44
43741;BME280;29352;48.708;9.290;2022-12-18T02:28:06;98990.56;;;-18.16;75.48
43741;BME280;29352;48.708;9.290;2022-12-18T02:30:39;98981.22;;;-18.16;74.97
43741;BME280;29352;48.708;9.290;2022-12-18T02:33:10;98982.72;;;-17.90;74.88
43741;BME280;29352;48.708;9.290;2022-12-18T02:35:40;98980.78;;;-17.60;72.86
43741;BME280;29352;48.708;9.290;2022-12-18T02:38:09;98981.78;;;-17.80;72.54
43741;BME280;29352;48.708;9.290;2022-12-18T02:40:38;98993.00;;;-18.04;73.11
43741;BME280;29352;48.708;9.290;2022-12-18T02:43:13;99008.41;;;-18.13;72.34
43741;BME280;29352;48.708;9.290;2022-12-18T02:45:56;99000.72;;;-18.11;71.96
43741;BME280;29352;48.708;9.290;2022-12-18T02:48:28;99002.47;;;-18.14;72.57
43741;BME280;29352;48.708;9.290;2022-12-18T02:53:47;99007.41;;;-17.95;71.71
43741;BME280;29352;48.708;9.290;2022-12-18T02:56:37;99009.81;;;-17.77;70.05
43741;BME280;29352;48.708;9.290;2022-12-18T02:59:33;99006.41;;;-17.77;69.73
43741;BME280;29352;48.708;9.290;2022-12-18T03:02:26;99014.53;;;-18.43;73.33
43741;BME280;29352;48.708;9.290;2022-12-18T03:05:09;99011.16;;;-18.47;73.30
43741;BME280;29352;48.708;9.290;2022-12-18T03:07:51;99010.19;;;-18.29;74.04
43741;BME280;29352;48.708;9.290;2022-12-18T03:10:28;98999.88;;;-18.09;74.20
43741;BME280;29352;48.708;9.290;2022-12-18T03:13:10;98990.75;;;-18.45;73.24
43741;BME280;29352;48.708;9.290;2022-12-18T03:15:45;99001.00;;;-18.53;73.36
43741;BME280;29352;48.708;9.290;2022-12-18T03:18:23;99007.81;;;-18.53;73.18
43741;BME280;29352;48.708;9.290;2022-12-18T03:20:58;99005.13;;;-18.37;73.38
43741;BME280;29352;48.708;9.290;2022-12-18T03:23:34;99006.16;;;-18.62;73.17
43741;BME280;29352;48.708;9.290;2022-12-18T03:26:10;99023.94;;;-18.51;72.45
43741;BME280;29352;48.708;9.290;2022-12-18T03:28:48;99016.16;;;-18.36;72.13
43741;BME280;29352;48.708;9.290;2022-12-18T03:31:21;99026.50;;;-18.57;72.95
43741;BME280;29352;48.708;9.290;2022-12-18T03:33:54;99030.69;;;-18.43;72.77
43741;BME280;29352;48.708;9.290;2022-12-18T03:36:23;99023.81;;;-18.33;73.69
43741;BME280;29352;48.708;9.290;2022-12-18T03:38:50;99026.38;;;-18.36;73.31
43741;BME280;29352;48.708;9.290;2022-12-18T03:41:28;99018.78;;;-18.41;72.40
43741;BME280;29352;48.708;9.290;2022-12-18T03:52:14;99015.59;;;-18.79;71.96
43741;BME280;29352;48.708;9.290;2022-12-18T03:54:47;99018.06;;;-18.73;71.34
43741;BME280;29352;48.708;9.290;2022-12-18T03:57:27;99023.28;;;-18.99;72.10
43741;BME280;29352;48.708;9.290;2022-12-18T04:00:01;99017.34;;;-18.97;72.33
43741;BME280;29352;48.708;9.290;2022-12-18T04:02:35;99034.31;;;-19.00;72.78
43741;BME280;29352;48.708;9.290;2022-12-18T04:05:07;99034.31;;;-18.99;74.02
43741;BME280;29352;48.708;9.290;2022-12-18T04:07:37;99031.75;;;-18.90;73.48
43741;BME280;29352;48.708;9.290;2022-12-18T04:10:07;99023.97;;;-18.54;74.23
43741;BME280;29352;48.708;9.290;2022-12-18T04:12:37;99023.13;;;-18.63;74.43
43741;BME280;29352;48.708;9.290;2022-12-18T04:15:03;99019.69;;;-18.48;73.99
43741;BME280;29352;48.708;9.290;2022-12-18T04:17:29;99007.91;;;-18.69;73.89
43741;BME280;29352;48.708;9.290;2022-12-18T04:19:55;99018.13;;;-18.84;74.29
43741;BME280;29352;48.708;9.290;2022-12-18T04:22:20;99015.47;;;-18.56;72.91
43741;BME280;29352;48.708;9.290;2022-12-18T04:24:46;99014.78;;;-18.98;71.05
43741;BME280;29352;48.708;9.290;2022-12-18T04:27:11;99028.38;;;-19.12;73.03
43741;BME280;29352;48.708;9.290;2022-12-18T04:29:36;99021.66;;;-19.28;72.20
43741;BME280;29352;48.708;9.290;2022-12-18T04:32:02;99022.50;;;-19.32;71.83
43741;BME280;29352;48.708;9.290;2022-12-18T04:34:27;99020.81;;;-19.42;71.64
43741;BME280;29352;48.708;9.290;2022-12-18T04:36:53;99027.63;;;-19.53;71.79
43741;BME280;29352;48.708;9.290;2022-12-18T04:39:18;99037.78;;;-19.50;72.38
43741;BME280;29352;48.708;9.290;2022-12-18T04:41:44;99036.94;;;-19.46;73.01
43741;BME280;29352;48.708;9.290;2022-12-18T04:44:10;99048.78;;;-19.33;72.85
43741;BME280;29352;48.708;9.290;2022-12-18T04:46:35;99046.22;;;-19.07;72.85
43741;BME280;29352;48.708;9.290;2022-12-18T04:49:01;99054.72;;;-19.25;72.49
43741;BME280;29352;48.708;9.290;2022-12-18T04:51:26;99046.25;;;-19.50;73.16
43741;BME280;29352;48.708;9.290;2022-12-18T04:53:51;99032.69;;;-19.34;71.96
43741;BME280;29352;48.708;9.290;2022-12-18T04:56:17;99033.50;;;-19.19;71.09
43741;BME280;29352;48.708;9.290;2022-12-18T04:58:44;99031.88;;;-19.51;72.26
43741;BME280;29352;48.708;9.290;2022-12-18T05:01:11;99027.59;;;-19.34;71.72
43741;BME280;29352;48.708;9.290;2022-12-18T05:03:38;99015.59;;;-18.82;71.17
43741;BME280;29352;48.708;9.290;2022-12-18T05:06:05;99007.91;;;-18.78;70.04
43741;BME280;29352;48.708;9.290;2022-12-18T05:08:32;99005.47;;;-19.04;71.03
43741;BME280;29352;48.708;9.290;2022-12-18T05:11:06;98997.72;;;-18.72;70.41
43741;BME280;29352;48.708;9.290;2022-12-18T05:13:35;99021.66;;;-19.36;71.51
43741;BME280;29352;48.708;9.290;2022-12-18T05:16:02;99011.50;;;-19.42;72.65
43741;BME280;29352;48.708;9.290;2022-12-18T05:18:28;99020.03;;;-19.63;72.28
43741;BME280;29352;48.708;9.290;2022-12-18T05:20:54;99018.28;;;-19.70;73.96
43741;BME280;29352;48.708;9.290;2022-12-18T05:23:21;99025.06;;;-19.50;72.31
43741;BME280;29352;48.708;9.290;2022-12-18T05:25:53;99031.00;;;-19.67;72.09
43741;BME280;29352;48.708;9.290;2022-12-18T05:28:21;99040.34;;;-19.69;71.71
43741;BME280;29352;48.708;9.290;2022-12-18T05:30:53;99038.66;;;-19.68;73.40
43741;BME280;29352;48.708;9.290;2022-12-18T05:33:21;99042.88;;;-19.73;72.86
43741;BME280;29352;48.708;9.290;2022-12-18T05:35:53;99045.44;;;-19.72;73.97
43741;BME280;29352;48.708;9.290;2022-12-18T05:38:21;99044.56;;;-19.77;73.19
43741;BME280;29352;48.708;9.290;2022-12-18T05:40:48;99039.47;;;-20.34;71.73
43741;BME280;29352;48.708;9.290;2022-12-18T05:43:14;99046.97;;;-20.64;72.63
43741;BME280;29352;48.708;9.290;2022-12-18T05:45:41;99039.41;;;-20.60;75.25
43741;BME280;29352;48.708;9.290;2022-12-18T05:48:07;99043.69;;;-20.37;72.54
43741;BME280;29352;48.708;9.290;2022-12-18T05:50:39;99039.44;;;-20.44;71.85
43741;BME280;29352;48.708;9.290;2022-12-18T05:53:07;99036.03;;;-20.46;71.48
43741;BME280;29352;48.708;9.290;2022-12-18T05:55:37;99039.47;;;-20.35;72.08
43741;BME280;29352;48.708;9.290;2022-12-18T05:58:06;99040.31;;;-20.33;71.65
43741;BME280;29352;48.708;9.290;2022-12-18T06:00:36;99035.19;;;-20.39;70.59
43741;BME280;29352;48.708;9.290;2022-12-18T06:03:07;99037.78;;;-20.27;70.68
43741;BME280;29352;48.708;9.290;2022-12-18T06:05:42;99031.00;;;-20.34;70.89
43741;BME280;29352;48.708;9.290;2022-12-18T06:08:10;99030.16;;;-19.92;71.42
43741;BME280;29352;48.708;9.290;2022-12-18T06:10:36;99026.75;;;-20.20;71.93
43741;BME280;29352;48.708;9.290;2022-12-18T06:13:03;99031.84;;;-20.21;71.33
43741;BME280;29352;48.708;9.290;2022-12-18T06:15:29;99031.81;;;-20.23;72.25
43741;BME280;29352;48.708;9.290;2022-12-18T06:17:55;99041.16;;;-20.37;73.22
43741;BME280;29352;48.708;9.290;2022-12-18T06:20:21;99044.47;;;-20.60;73.29
43741;BME280;29352;48.708;9.290;2022-12-18T06:22:46;99046.03;;;-20.94;70.32
43741;BME280;29352;48.708;9.290;2022-12-18T06:25:12;99047.53;;;-21.23;72.20
43741;BME280;29352;48.708;9.290;2022-12-18T06:27:37;99039.78;;;-21.50;73.71
43741;BME280;29352;48.708;9.290;2022-12-18T06:30:04;99032.41;;;-21.07;73.33
43741;BME280;29352;48.708;9.290;2022-12-18T06:32:30;99036.75;;;-20.83;75.32
43741;BME280;29352;48.708;9.290;2022-12-18T06:34:55;99046.97;;;-20.69;72.97
43741;BME280;29352;48.708;9.290;2022-12-18T06:37:21;99056.19;;;-20.85;72.05
43741;BME280;29352;48.708;9.290;2022-12-18T06:39:51;99060.44;;;-20.81;71.58
43741;BME280;29352;48.708;9.290;2022-12-18T06:42:17;99057.03;;;-20.84;71.03
43741;BME280;29352;48.708;9.290;2022-12-18T06:44:43;99068.84;;;-20.95;71.92
43741;BME280;29352;48.708;9.290;2022-12-18T06:47:08;99057.84;;;-20.91;70.32
43741;BME280;29352;48.708;9.290;2022-12-18T06:49:34;99058.81;;;-20.68;72.27
43741;BME280;29352;48.708;9.290;2022-12-18T06:51:59;99066.13;;;-21.28;70.91
43741;BME280;29352;48.708;9.290;2022-12-18T06:54:25;99062.78;;;-21.22;70.69
43741;BME280;29352;48.708;9.290;2022-12-18T06:56:50;99063.72;;;-21.08;70.91
43741;BME280;29352;48.708;9.290;2022-12-18T06:59:15;99056.28;;;-20.68;69.90
43741;BME280;29352;48.708;9.290;2022-12-18T07:01:41;99057.91;;;-20.84;69.01
43741;BME280;29352;48.708;9.290;2022-12-18T07:04:06;99058.81;;;-20.63;69.30
43741;BME280;29352;48.708;9.290;2022-12-18T07:06:32;99074.09;;;-20.49;68.82
43741;BME280;29352;48.708;9.290;2022-12-18T07:08:57;99070.63;;;-20.76;68.53
43741;BME280;29352;48.708;9.290;2022-12-18T07:11:23;99077.31;;;-20.93;69.45
43741;BME280;29352;48.708;9.290;2022-12-18T07:13:49;99072.34;;;-20.69;69.91
43741;BME280;29352;48.708;9.290;2022-12-18T07:16:17;99077.38;;;-20.78;68.59
43741;BME280;29352;48.708;9.290;2022-12-18T07:18:45;99083.34;;;-20.71;68.11
43741;BME280;29352;48.708;9.290;2022-12-18T07:21:14;99087.56;;;-20.75;68.14
43741;BME280;29352;48.708;9.290;2022-12-18T07:23:41;99096.16;;;-20.42;68.41
43741;BME280;29352;48.708;9.290;2022-12-18T07:26:11;99099.63;;;-20.03;66.61
43741;BME280;29352;48.708;9.290;2022-12-18T07:28:39;99099.69;;;-19.39;65.50
43741;BME280;29352;48.708;9.290;2022-12-18T07:31:11;99102.19;;;-19.02;64.21
43741;BME280;29352;48.708;9.290;2022-12-18T07:33:42;99091.16;;;-18.89;63.96
43741;BME280;29352;48.708;9.290;2022-12-18T07:36:10;99099.69;;;-19.35;63.37
43741;BME280;29352;48.708;9.290;2022-12-18T07:38:36;99101.41;;;-19.63;65.27
43741;BME280;29352;48.708;9.290;2022-12-18T07:41:03;99089.94;;;-18.07;63.63
43741;BME280;29352;48.708;9.290;2022-12-18T07:43:33;99085.34;;;-17.57;61.12
43741;BME280;29352;48.708;9.290;2022-12-18T07:46:00;99089.75;;;-16.82;60.61
43741;BME280;29352;48.708;9.290;2022-12-18T07:48:30;99085.94;;;-16.43;59.04
43741;BME280;29352;48.708;9.290;2022-12-18T07:51:00;99091.38;;;-16.03;57.66
43741;BME280;29352;48.708;9.290;2022-12-18T07:53:26;99091.75;;;-16.32;59.11
43741;BME280;29352;48.708;9.290;2022-12-18T07:56:04;99091.03;;;-15.26;56.05
43741;BME280;29352;48.708;9.290;2022-12-18T07:58:33;99088.66;;;-15.36;57.91
43741;BME280;29352;48.708;9.290;2022-12-18T08:01:07;99100.22;;;-15.66;58.77
43741;BME280;29352;48.708;9.290;2022-12-18T08:03:35;99105.28;;;-15.63;57.04
43741;BME280;29352;48.708;9.290;2022-12-18T08:06:06;99104.66;;;-14.31;57.20
43741;BME280;29352;48.708;9.290;2022-12-18T08:08:34;99091.69;;;-14.23;55.99
43741;BME280;29352;48.708;9.290;2022-12-18T08:11:01;99088.88;;;-13.35;54.92
43741;BME280;29352;48.708;9.290;2022-12-18T08:13:27;99094.22;;;-14.21;55.73
43741;BME280;29352;48.708;9.290;2022-12-18T08:15:57;99098.28;;;-12.35;51.97
43741;BME280;29352;48.708;9.290;2022-12-18T08:18:24;99102.00;;;-13.11;51.74
43741;BME280;29352;48.708;9.290;2022-12-18T08:20:50;99098.00;;;-12.26;53.00
43741;BME280;29352;48.708;9.290;2022-12-18T08:23:16;99102.06;;;-11.60;51.67
43741;BME280;29352;48.708;9.290;2022-12-18T08:25:41;99094.22;;;-11.83;53.85
43741;BME280;29352;48.708;9.290;2022-12-18T08:28:07;99101.75;;;-13.02;59.33
43741;BME280;29352;48.708;9.290;2022-12-18T08:30:32;99101.03;;;-12.74;58.81
43741;BME280;29352;48.708;9.290;2022-12-18T08:32:57;99098.03;;;-13.60;58.19
43741;BME280;29352;48.708;9.290;2022-12-18T08:35:23;99100.13;;;-12.72;57.19
43741;BME280;29352;48.708;9.290;2022-12-18T08:37:48;99092.78;;;-12.85;57.96
43741;BME280;29352;48.708;9.290;2022-12-18T08:40:14;99098.16;;;-13.29;56.39
43741;BME280;29352;48.708;9.290;2022-12-18T08:42:40;99101.47;;;-13.61;56.97
43741;BME280;29352;48.708;9.290;2022-12-18T08:45:24;99097.84;;;-13.17;56.17
43741;BME280;29352;48.708;9.290;2022-12-18T08:47:51;99092.47;;;-12.75;54.69
43741;BME280;29352;48.708;9.290;2022-12-18T08:50:16;99086.50;;;-12.13;54.56
43741;BME280;29352;48.708;9.290;2022-12-18T08:52:41;99088.81;;;-11.21;51.97
43741;BME280;29352;48.708;9.290;2022-12-18T08:55:08;99097.75;;;-12.17;54.70
43741;BME280;29352;48.708;9.290;2022-12-18T08:57:34;99091.50;;;-12.69;56.17
43741;BME280;29352;48.708;9.290;2022-12-18T09:00:00;99092.88;;;-12.26;56.37
43741;BME280;29352;48.708;9.290;2022-12-18T09:02:25;99094.09;;;-13.03;56.76
43741;BME280;29352;48.708;9.290;2022-12-18T09:04:54;99094.34;;;-13.50;60.38
43741;BME280;29352;48.708;9.290;2022-12-18T09:07:20;99083.00;;;-12.73;56.65
43741;BME280;29352;48.708;9.290;2022-12-18T09:09:45;99071.13;;;-12.16;55.93
43741;BME280;29352;48.708;9.290;2022-12-18T09:12:10;99071.63;;;-12.03;56.71
43741;BME280;29352;48.708;9.290;2022-12-18T09:14:36;99078.19;;;-12.23;58.22
43741;BME280;29352;48.708;9.290;2022-12-18T09:17:01;99065.94;;;-12.44;59.24
43741;BME280;29352;48.708;9.290;2022-12-18T09:19:27;99065.97;;;-12.46;56.63
43741;BME280;29352;48.708;9.290;2022-12-18T09:21:52;99068.44;;;-12.43;57.87
43741;BME280;29352;48.708;9.290;2022-12-18T09:24:18;99077.00;;;-11.55;59.37
43741;BME280;29352;48.708;9.290;2022-12-18T09:26:43;99071.25;;;-11.10;60.04
43741;BME280;29352;48.708;9.290;2022-12-18T09:29:09;99078.00;;;-12.17;58.63
43741;BME280;29352;48.708;9.290;2022-12-18T09:31:36;99077.19;;;-11.89;57.10
43741;BME280;29352;48.708;9.290;2022-12-18T09:34:03;99068.88;;;-11.16;56.97
43741;BME280;29352;48.708;9.290;2022-12-18T09:36:28;99062.06;;;-10.20;55.81
43741;BME280;29352;48.708;9.290;2022-12-18T09:38:57;99060.56;;;-11.79;58.44
43741;BME280;29352;48.708;9.290;2022-12-18T09:41:50;99057.81;;;-10.44;55.32
43741;BME280;29352;48.708;9.290;2022-12-18T09:44:29;99063.56;;;-10.61;57.65
43741;BME280;29352;48.708;9.290;2022-12-18T09:47:05;99056.53;;;-10.11;59.10
43741;BME280;29352;48.708;9.290;2022-12-18T09:49:56;99061.97;;;-10.17;60.17
43741;BME280;29352;48.708;9.290;2022-12-18T09:52:36;99051.66;;;-9.73;59.57
43741;BME280;29352;48.708;9.290;2022-12-18T09:58:46;99048.41;;;-10.70;57.84
43741;BME280;29352;48.708;9.290;2022-12-18T10:00:56;99053.09;;;-11.60;59.74
43741;BME280;29352;48.708;9.290;2022-12-18T10:03:22;99048.34;;;-11.72;59.95
43741;BME280;29352;48.708;9.290;2022-12-18T10:06:14;99054.84;;;-11.34;62.41
43741;BME280;29352;48.708;9.290;2022-12-18T10:12:05;99039.47;;;-10.85;59.91
43741;BME280;29352;48.708;9.290;2022-12-18T10:21:03;99031.41;;;-8.99;58.65
43741;BME280;29352;48.708;9.290;2022-12-18T10:23:42;99042.28;;;-9.54;60.53
43741;BME280;29352;48.708;9.290;2022-12-18T10:26:15;99046.13;;;-9.64;60.52
43741;BME280;29352;48.708;9.290;2022-12-18T10:28:43;99045.88;;;-10.02;58.78
43741;BME280;29352;48.708;9.290;2022-12-18T10:33:44;99056.81;;;-9.09;61.16
43741;BME280;29352;48.708;9.290;2022-12-18T10:36:10;99044.38;;;-9.85;59.45
43741;BME280;29352;48.708;9.290;2022-12-18T10:38:36;99034.09;;;-10.09;60.55
43741;BME280;29352;48.708;9.290;2022-12-18T10:44:20;99043.75;;;-9.06;58.98
43741;BME280;29352;48.708;9.290;2022-12-18T10:46:50;99046.72;;;-8.74;62.87
43741;BME280;29352;48.708;9.290;2022-12-18T10:49:25;99048.13;;;-8.67;61.17
43741;BME280;29352;48.708;9.290;2022-12-18T10:52:20;99044.84;;;-8.70;60.75
43741;BME280;29352;48.708;9.290;2022-12-18T10:55:12;99052.25;;;-8.63;61.54
43741;BME280;29352;48.708;9.290;2022-12-18T10:57:41;99054.16;;;-9.07;61.20
43741;BME280;29352;48.708;9.290;2022-12-18T11:02:53;99045.38;;;-9.23;61.23
43741;BME280;29352;48.708;9.290;2022-12-18T11:05:30;99049.19;;;-9.12;63.84
43741;BME280;29352;48.708;9.290;2022-12-18T11:08:00;99039.75;;;-9.13;62.15
43741;BME280;29352;48.708;9.290;2022-12-18T11:10:35;99037.25;;;-8.17;62.31
43741;BME280;29352;48.708;9.290;2022-12-18T11:13:21;99041.88;;;-9.22;62.68
43741;BME280;29352;48.708;9.290;2022-12-18T11:15:50;99033.59;;;-8.90;62.29
43741;BME280;29352;48.708;9.290;2022-12-18T11:18:29;99023.22;;;-8.69;61.64
43741;BME280;29352;48.708;9.290;2022-12-18T11:21:07;99026.34;;;-7.68;60.28
43741;BME280;29352;48.708;9.290;2022-12-18T11:23:37;99020.19;;;-8.02;60.38
43741;BME280;29352;48.708;9.290;2022-12-18T11:26:17;99009.31;;;-7.91;60.95
43741;BME280;29352;48.708;9.290;2022-12-18T11:28:51;99004.22;;;-7.22;61.17
43741;BME280;29352;48.708;9.290;2022-12-18T11:31:32;99012.00;;;-7.39;61.56
43741;BME280;29352;48.708;9.290;2022-12-18T11:36:42;99000.47;;;-7.87;64.55
43741;BME280;29352;48.708;9.290;2022-12-18T11:39:31;98996.09;;;-7.68;64.52
43741;BME280;29352;48.708;9.290;2022-12-18T11:44:58;99004.66;;;-8.79;63.32
43741;BME280;29352;48.708;9.290;2022-12-18T11:47:44;98997.06;;;-8.06;63.50
43741;BME280;29352;48.708;9.290;2022-12-18T11:50:20;98988.69;;;-7.58;65.61
43741;BME280;29352;48.708;9.290;2022-12-18T11:52:49;98975.13;;;-7.11;61.97
43741;BME280;29352;48.708;9.290;2022-12-18T11:58:12;98974.59;;;-7.18;65.00
43741;BME280;29352;48.708;9.290;2022-12-18T12:04:02;98982.78;;;-7.79;64.26
43741;BME280;29352;48.708;9.290;2022-12-18T12:21:39;98951.41;;;-7.73;63.73
43741;BME280;29352;48.708;9.290;2022-12-18T12:33:08;98954.94;;;-7.93;64.03
43741;BME280;29352;48.708;9.290;2022-12-18T12:38:47;98953.59;;;-8.19;65.74
43741;BME280;29352;48.708;9.290;2022-12-18T12:41:22;98953.88;;;-8.06;67.63
43741;BME280;29352;48.708;9.290;2022-12-18T12:44:19;98954.16;;;-8.31;66.54
43741;BME280;29352;48.708;9.290;2022-12-18T12:46:54;98959.97;;;-8.45;65.72
43741;BME280;29352;48.708;9.290;2022-12-18T12:49:27;98959.38;;;-8.50;66.75
43741;BME280;29352;48.708;9.290;2022-12-18T12:52:03;98945.50;;;-8.49;68.57
43741;BME280;29352;48.708;9.290;2022-12-18T12:54:34;98946.16;;;-8.07;67.81
43741;BME280;29352;48.708;9.290;2022-12-18T12:57:09;98951.06;;;-8.01;68.38
43741;BME280;29352;48.708;9.290;2022-12-18T13:07:39;98975.78;;;-8.13;68.61
43741;BME280;29352;48.708;9.290;2022-12-18T13:15:42;98958.59;;;-7.97;66.26
43741;BME280;29352;48.708;9.290;2022-12-18T13:18:16;98971.59;;;-8.16;68.80
43741;BME280;29352;48.708;9.290;2022-12-18T13:31:02;98975.53;;;-8.26;67.81
43741;BME280;29352;48.708;9.290;2022-12-18T13:36:29;98962.28;;;-8.39;68.79
43741;BME280;29352;48.708;9.290;2022-12-18T13:39:20;98966.06;;;-8.46;70.20
43741;BME280;29352;48.708;9.290;2022-12-18T13:41:54;98959.47;;;-8.34;68.61
43741;BME280;29352;48.708;9.290;2022-12-18T13:44:58;98957.13;;;-8.58;68.86
43741;BME280;29352;48.708;9.290;2022-12-18T13:47:31;98960.50;;;-8.37;69.66
43741;BME280;29352;48.708;9.290;2022-12-18T13:50:02;98951.38;;;-8.45;69.47
43741;BME280;29352;48.708;9.290;2022-12-18T13:52:37;98953.41;;;-8.71;69.07
43741;BME280;29352;48.708;9.290;2022-12-18T13:55:13;98960.47;;;-8.55;71.31
43741;BME280;29352;48.708;9.290;2022-12-18T13:57:43;98953.41;;;-8.71;70.18
43741;BME280;29352;48.708;9.290;2022-12-18T14:00:26;98950.22;;;-8.96;71.02
43741;BME280;29352;48.708;9.290;2022-12-18T14:02:55;98960.97;;;-9.06;69.50
43741;BME280;29352;48.708;9.290;2022-12-18T14:05:28;98954.38;;;-8.92;71.64
43741;BME280;29352;48.708;9.290;2022-12-18T14:08:01;98958.84;;;-8.77;71.47
43741;BME280;29352;48.708;9.290;2022-12-18T14:10:33;98957.56;;;-8.87;69.94
43741;BME280;29352;48.708;9.290;2022-12-18T14:13:06;98952.09;;;-9.00;71.01
43741;BME280;29352;48.708;9.290;2022-12-18T14:15:43;98953.09;;;-9.02;70.65
43741;BME280;29352;48.708;9.290;2022-12-18T14:18:23;98962.13;;;-8.92;71.07
43741;BME280;29352;48.708;9.290;2022-12-18T14:20:53;98969.00;;;-9.12;70.19
43741;BME280;29352;48.708;9.290;2022-12-18T14:23:31;98963.03;;;-9.14;71.15
43741;BME280;29352;48.708;9.290;2022-12-18T14:26:17;98959.75;;;-9.17;71.00
43741;BME280;29352;48.708;9.290;2022-12-18T14:28:56;98958.84;;;-9.16;70.97
43741;BME280;29352;48.708;9.290;2022-12-18T14:31:25;98960.31;;;-9.31;71.11
43741;BME280;29352;48.708;9.290;2022-12-18T14:33:53;98963.06;;;-9.34;71.21
43741;BME280;29352;48.708;9.290;2022-12-18T14:36:25;98968.09;;;-9.31;71.93
43741;BME280;29352;48.708;9.290;2022-12-18T14:38:57;98972.16;;;-9.25;71.60
43741;BME280;29352;48.708;9.290;2022-12-18T14:41:25;98972.66;;;-9.17;70.33
43741;BME280;29352;48.708;9.290;2022-12-18T14:43:53;98972.13;;;-9.44;71.22
43741;BME280;29352;48.708;9.290;2022-12-18T14:46:35;98978.97;;;-9.43;72.29
43741;BME280;29352;48.708;9.290;2022-12-18T14:49:23;98970.22;;;-9.61;72.52
43741;BME280;29352;48.708;9.290;2022-12-18T14:51:57;98972.88;;;-9.42;71.98
43741;BME280;29352;48.708;9.290;2022-12-18T14:54:28;98963.31;;;-9.20;70.41
43741;BME280;29352;48.708;9.290;2022-12-18T14:57:03;98973.56;;;-9.59;71.04
43741;BME280;29352;48.708;9.290;2022-12-18T14:59:32;98973.16;;;-9.70;71.76
43741;BME280;29352;48.708;9.290;2022-12-18T15:02:08;98980.16;;;-9.94;72.39
43741;BME280;29352;48.708;9.290;2022-12-18T15:05:18;98978.81;;;-10.27;74.50
43741;BME280;29352;48.708;9.290;2022-12-18T15:07:55;98979.66;;;-10.26;73.79